Time;durP1;ratioP1;P1;durP2;ratioP2;P2;SDS_P1;SDS_P2;PMS_P1;PMS_P2;Temp;Humidity;BMP_temperature;BMP_pressure;BME280_temperature;BME280_humidity;BME280_pressure;Samples;Min_cycle;Max_cycle;Signal;HPM_P1;HPM_P2
2021/01/26 00:01:18;;;;;;;26.55;13.78;;;;;;;;;;1780947;80;21151;-81
2021/01/26 00:03:44;;;;;;;17.75;10.70;;;;;;;;;;1786405;79;21148;-81
2021/01/26 00:06:10;;;;;;;16.93;10.32;;;;;;;;;;1786634;80;21579;-81
2021/01/26 00:08:36;;;;;;;15.25;10.03;;;;;;;;;;1786621;80;21117;-81
2021/01/26 00:11:03;;;;;;;20.02;11.22;;;;;;;;;;1786426;80;21151;-80
2021/01/26 00:13:30;;;;;;;20.90;11.68;;;;;;;;;;1786554;80;21199;-82
2021/01/26 00:15:56;;;;;;;21.93;12.37;;;;;;;;;;1786657;80;21571;-83
2021/01/26 00:18:22;;;;;;;20.30;12.05;;;;;;;;;;1786695;80;21124;-85
2021/01/26 00:20:49;;;;;;;22.62;11.75;;;;;;;;;;1786478;80;21156;-83
2021/01/26 00:23:15;;;;;;;21.97;12.13;;;;;;;;;;1786856;80;21167;-86
2021/01/26 00:25:42;;;;;;;21.40;12.13;;;;;;;;;;1786522;80;21184;-85
2021/01/26 00:28:09;;;;;;;20.57;11.93;;;;;;;;;;1786692;80;21128;-82
2021/01/26 00:30:36;;;;;;;20.02;11.75;;;;;;;;;;1786466;80;21172;-83
2021/01/26 00:33:08;;;;;;;21.12;12.53;;;;;;;;;;1786442;80;21280;-85
2021/01/26 00:35:34;;;;;;;21.02;11.83;;;;;;;;;;1786632;80;21173;-84
2021/01/26 00:38:00;;;;;;;19.52;11.83;;;;;;;;;;1786547;80;21175;-85
2021/01/26 00:40:26;;;;;;;20.17;11.85;;;;;;;;;;1786895;80;21626;-84
2021/01/26 00:42:52;;;;;;;20.52;12.03;;;;;;;;;;1786865;80;21175;-85
2021/01/26 00:45:20;;;;;;;22.98;12.90;;;;;;;;;;1786597;80;21551;-84
2021/01/26 00:47:46;;;;;;;21.85;12.20;;;;;;;;;;1786626;80;21159;-84
2021/01/26 00:50:13;;;;;;;26.55;13.25;;;;;;;;;;1786489;80;21183;-84
2021/01/26 00:52:39;;;;;;;25.45;12.23;;;;;;;;;;1787004;80;21159;-84
2021/01/26 00:55:05;;;;;;;20.20;11.48;;;;;;;;;;1786408;80;21294;-83
2021/01/26 00:57:32;;;;;;;22.10;12.10;;;;;;;;;;1786546;80;21326;-84
2021/01/26 00:59:58;;;;;;;22.22;11.40;;;;;;;;;;1786974;80;21176;-85
2021/01/26 01:02:24;;;;;;;24.30;12.90;;;;;;;;;;1786355;80;21627;-84
2021/01/26 01:04:50;;;;;;;21.73;12.73;;;;;;;;;;1786786;80;21622;-84
2021/01/26 01:07:17;;;;;;;21.17;11.78;;;;;;;;;;1786452;80;21128;-83
2021/01/26 01:09:44;;;;;;;20.85;11.90;;;;;;;;;;1786390;80;21592;-84
2021/01/26 01:12:10;;;;;;;22.60;12.05;;;;;;;;;;1786457;80;21148;-84
2021/01/26 01:14:38;;;;;;;18.73;11.33;;;;;;;;;;1786423;80;21302;-83
2021/01/26 01:17:04;;;;;;;19.98;11.93;;;;;;;;;;1786541;80;21128;-83
2021/01/26 01:19:30;;;;;;;22.60;11.57;;;;;;;;;;1786406;80;21144;-84
2021/01/26 01:21:56;;;;;;;20.88;12.00;;;;;;;;;;1786523;80;21251;-84
2021/01/26 01:24:22;;;;;;;19.23;11.00;;;;;;;;;;1786594;80;21168;-83
2021/01/26 01:26:49;;;;;;;20.90;12.30;;;;;;;;;;1786735;80;21159;-84
2021/01/26 01:29:15;;;;;;;22.98;13.83;;;;;;;;;;1786563;80;21180;-83
2021/01/26 01:31:41;;;;;;;23.47;12.55;;;;;;;;;;1786650;80;21148;-84
2021/01/26 01:34:07;;;;;;;23.85;14.07;;;;;;;;;;1786565;80;21171;-85
2021/01/26 01:36:36;;;;;;;23.02;13.38;;;;;;;;;;1786954;80;21164;-83
2021/01/26 01:39:06;;;;;;;23.20;13.05;;;;;;;;;;1786761;80;21171;-84
2021/01/26 01:41:33;;;;;;;27.42;13.05;;;;;;;;;;1786578;80;21155;-83
2021/01/26 01:43:59;;;;;;;26.15;13.28;;;;;;;;;;1786754;80;21167;-84
2021/01/26 01:46:25;;;;;;;22.70;12.60;;;;;;;;;;1786618;80;21631;-83
2021/01/26 01:48:52;;;;;;;23.87;13.43;;;;;;;;;;1786865;80;21152;-83
2021/01/26 01:51:23;;;;;;;28.85;15.50;;;;;;;;;;1786757;80;21136;-83
2021/01/26 01:53:49;;;;;;;28.92;14.35;;;;;;;;;;1785829;80;21156;-83
2021/01/26 01:56:17;;;;;;;26.68;14.65;;;;;;;;;;1786669;80;21181;-83
2021/01/26 01:58:44;;;;;;;27.52;14.80;;;;;;;;;;1784358;79;21152;-82
2021/01/26 02:01:15;;;;;;;28.67;13.15;;;;;;;;;;1786987;80;21141;-81
2021/01/26 02:03:45;;;;;;;24.35;13.62;;;;;;;;;;1786518;80;21630;-82
2021/01/26 02:06:11;;;;;;;26.87;14.47;;;;;;;;;;1787032;80;21171;-83
2021/01/26 02:08:39;;;;;;;23.83;14.15;;;;;;;;;;1786825;80;21181;-82
2021/01/26 02:11:05;;;;;;;24.18;13.18;;;;;;;;;;1786609;80;21167;-84
2021/01/26 02:13:31;;;;;;;22.95;11.60;;;;;;;;;;1786582;80;21568;-83
2021/01/26 02:15:59;;;;;;;23.90;12.10;;;;;;;;;;1786950;80;21202;-82
2021/01/26 02:18:45;;;;;;;21.12;11.28;;;;;;;;;;1786840;80;21207;-82
2021/01/26 02:21:22;;;;;;;20.97;12.23;;;;;;;;;;1786646;80;21607;-82
2021/01/26 02:23:53;;;;;;;22.37;12.20;;;;;;;;;;1785378;80;21144;-83
2021/01/26 02:26:30;;;;;;;20.72;11.00;;;;;;;;;;1786668;80;21607;-84
2021/01/26 02:28:57;;;;;;;19.82;10.53;;;;;;;;;;1722438;83;21177;-83
2021/01/26 02:31:25;;;;;;;20.62;10.20;;;;;;;;;;1786694;80;21152;-86
2021/01/26 02:34:12;;;;;;;21.87;11.85;;;;;;;;;;1786647;80;21183;-85
2021/01/26 02:36:56;;;;;;;21.05;11.63;;;;;;;;;;1786765;80;21155;-86
2021/01/26 02:39:33;;;;;;;19.53;10.80;;;;;;;;;;1786927;80;21583;-84
2021/01/26 02:42:07;;;;;;;19.32;10.53;;;;;;;;;;1786747;80;21897;-86
2021/01/26 02:44:35;;;;;;;18.92;11.18;;;;;;;;;;1786563;80;21220;-84
2021/01/26 02:47:12;;;;;;;17.57;10.93;;;;;;;;;;1785429;80;21180;-85
2021/01/26 02:49:40;;;;;;;20.35;11.33;;;;;;;;;;1786535;80;21183;-86
2021/01/26 02:52:08;;;;;;;20.68;12.37;;;;;;;;;;1786539;80;21151;-83
2021/01/26 02:54:36;;;;;;;21.42;11.63;;;;;;;;;;1786909;80;21144;-85
2021/01/26 02:57:04;;;;;;;23.62;11.15;;;;;;;;;;1786432;80;21132;-83
2021/01/26 02:59:38;;;;;;;20.12;12.18;;;;;;;;;;1786624;80;21151;-84
2021/01/26 03:02:24;;;;;;;20.67;11.97;;;;;;;;;;1786803;80;21274;-84
2021/01/26 03:04:52;;;;;;;19.15;10.68;;;;;;;;;;1781469;79;21195;-83
2021/01/26 03:07:18;;;;;;;23.20;11.97;;;;;;;;;;1780710;80;21200;-84
2021/01/26 03:09:44;;;;;;;18.57;11.30;;;;;;;;;;1780953;80;21721;-84
2021/01/26 03:12:15;;;;;;;17.87;11.35;;;;;;;;;;1781093;80;21132;-84
2021/01/26 03:14:46;;;;;;;21.20;11.53;;;;;;;;;;1780885;80;21164;-83
2021/01/26 03:17:29;;;;;;;20.37;11.88;;;;;;;;;;1780814;80;21762;-84
2021/01/26 03:19:55;;;;;;;18.12;11.50;;;;;;;;;;1780713;80;21188;-83
2021/01/26 03:22:22;;;;;;;19.70;11.90;;;;;;;;;;1781083;80;21121;-84
2021/01/26 03:24:49;;;;;;;19.65;11.22;;;;;;;;;;1781101;80;21151;-84
2021/01/26 03:27:17;;;;;;;22.55;10.45;;;;;;;;;;1780782;80;21152;-84
2021/01/26 03:29:44;;;;;;;19.50;11.40;;;;;;;;;;1780821;80;21587;-85
2021/01/26 03:32:12;;;;;;;17.32;10.30;;;;;;;;;;1780733;80;21171;-84
2021/01/26 03:34:38;;;;;;;19.52;11.33;;;;;;;;;;1780823;80;21584;-84
2021/01/26 03:37:04;;;;;;;20.25;11.15;;;;;;;;;;1780799;80;21148;-87
2021/01/26 03:39:30;;;;;;;21.35;11.33;;;;;;;;;;1750525;80;21136;-86
2021/01/26 03:41:57;;;;;;;20.00;10.63;;;;;;;;;;1780917;80;21148;-84
2021/01/26 03:44:23;;;;;;;19.12;11.57;;;;;;;;;;1780959;80;21179;-86
2021/01/26 03:46:51;;;;;;;19.37;11.50;;;;;;;;;;1780783;80;21179;-85
2021/01/26 03:49:28;;;;;;;19.65;11.90;;;;;;;;;;1780743;80;21156;-85
2021/01/26 03:52:15;;;;;;;22.10;11.53;;;;;;;;;;1779503;80;21168;-84
2021/01/26 03:55:01;;;;;;;18.85;11.53;;;;;;;;;;1780357;80;21211;-85
2021/01/26 03:57:29;;;;;;;19.12;11.43;;;;;;;;;;1780574;80;21274;-85
2021/01/26 04:00:00;;;;;;;18.87;10.78;;;;;;;;;;1780734;80;21592;-86
2021/01/26 04:02:34;;;;;;;18.27;10.55;;;;;;;;;;1784111;80;21134;-85
2021/01/26 04:05:02;;;;;;;23.07;11.80;;;;;;;;;;1785287;80;21138;-85
2021/01/26 04:07:42;;;;;;;18.12;10.82;;;;;;;;;;1786813;80;21134;-84
2021/01/26 04:10:13;;;;;;;20.85;11.40;;;;;;;;;;1786714;80;21180;-86
2021/01/26 04:12:39;;;;;;;21.15;10.55;;;;;;;;;;1741454;82;21280;-85
2021/01/26 04:15:07;;;;;;;18.85;10.63;;;;;;;;;;1722518;83;21309;-84
2021/01/26 04:17:37;;;;;;;20.52;11.50;;;;;;;;;;1722648;83;21176;-84
2021/01/26 04:20:11;;;;;;;17.80;10.85;;;;;;;;;;1722501;83;21182;-83
2021/01/26 04:22:38;;;;;;;17.95;10.58;;;;;;;;;;1722629;83;21167;-84
2021/01/26 04:25:22;;;;;;;18.20;9.88;;;;;;;;;;1722697;83;21120;-83
2021/01/26 04:27:48;;;;;;;17.10;9.55;;;;;;;;;;1722960;83;21151;-84
2021/01/26 04:30:16;;;;;;;17.87;10.63;;;;;;;;;;1722477;83;21135;-82
2021/01/26 04:32:42;;;;;;;15.43;9.13;;;;;;;;;;1722617;83;21305;-83
2021/01/26 04:35:08;;;;;;;20.08;10.45;;;;;;;;;;1722456;83;21555;-84
2021/01/26 04:37:34;;;;;;;18.60;10.72;;;;;;;;;;1722634;83;21312;-83
2021/01/26 04:40:02;;;;;;;18.75;10.53;;;;;;;;;;1722442;83;21139;-84
2021/01/26 04:42:28;;;;;;;16.23;9.35;;;;;;;;;;1722486;83;21158;-84
2021/01/26 04:44:57;;;;;;;17.87;10.63;;;;;;;;;;1722540;83;21285;-83
2021/01/26 04:47:25;;;;;;;17.48;10.10;;;;;;;;;;1721842;83;21195;-84
2021/01/26 04:49:53;;;;;;;19.30;10.15;;;;;;;;;;1722920;83;21163;-84
2021/01/26 04:52:24;;;;;;;17.05;10.95;;;;;;;;;;1722298;83;21724;-85
2021/01/26 04:54:54;;;;;;;20.60;11.05;;;;;;;;;;1722721;83;21293;-85
2021/01/26 04:57:31;;;;;;;21.75;11.95;;;;;;;;;;1722641;83;21184;-86
2021/01/26 05:00:02;;;;;;;16.87;9.98;;;;;;;;;;1722791;83;21167;-85
2021/01/26 05:02:33;;;;;;;18.73;11.38;;;;;;;;;;1722580;83;21175;-84
2021/01/26 05:05:01;;;;;;;19.02;10.63;;;;;;;;;;1707884;83;21187;-84
2021/01/26 05:07:28;;;;;;;20.75;11.63;;;;;;;;;;1721740;83;21186;-85
2021/01/26 05:10:09;;;;;;;19.48;11.12;;;;;;;;;;1741552;82;21174;-84
2021/01/26 05:12:40;;;;;;;19.20;11.33;;;;;;;;;;1717969;83;21175;-84
2021/01/26 05:15:07;;;;;;;17.02;11.25;;;;;;;;;;1718109;83;21635;-85
2021/01/26 05:17:44;;;;;;;20.95;11.63;;;;;;;;;;1718295;83;21329;-82
2021/01/26 05:20:12;;;;;;;25.40;12.20;;;;;;;;;;1718324;83;21170;-84
2021/01/26 05:22:52;;;;;;;22.00;12.82;;;;;;;;;;1718322;83;21305;-83
2021/01/26 05:25:19;;;;;;;26.20;13.83;;;;;;;;;;1718329;83;21321;-85
2021/01/26 05:27:48;;;;;;;23.98;13.15;;;;;;;;;;1718064;83;21650;-85
2021/01/26 05:30:18;;;;;;;25.72;13.22;;;;;;;;;;1718129;83;21174;-85
2021/01/26 05:32:43;;;;;;;26.50;14.73;;;;;;;;;;1718067;83;21164;-83
2021/01/26 05:35:09;;;;;;;30.12;15.18;;;;;;;;;;1718028;83;21583;-82
2021/01/26 05:37:35;;;;;;;29.02;15.63;;;;;;;;;;1718129;83;21199;-86
2021/01/26 05:40:07;;;;;;;28.50;14.93;;;;;;;;;;1718054;83;21560;-86
2021/01/26 05:42:33;;;;;;;27.58;14.07;;;;;;;;;;1718039;83;21626;-86
2021/01/26 05:45:01;;;;;;;25.82;14.73;;;;;;;;;;1718130;83;21179;-86
2021/01/26 05:47:31;;;;;;;24.85;14.80;;;;;;;;;;1718196;83;21210;-85
2021/01/26 05:49:57;;;;;;;24.98;14.13;;;;;;;;;;1718110;83;21658;-82
2021/01/26 05:52:32;;;;;;;23.30;13.55;;;;;;;;;;1718409;83;21289;-84
2021/01/26 05:54:59;;;;;;;25.40;13.80;;;;;;;;;;1718208;83;21167;-84
2021/01/26 05:57:32;;;;;;;26.90;14.35;;;;;;;;;;1718275;83;21204;-85
2021/01/26 06:00:15;;;;;;;27.17;14.98;;;;;;;;;;1718059;83;21622;-84
2021/01/26 06:02:41;;;;;;;29.32;16.23;;;;;;;;;;1718005;83;21159;-84
2021/01/26 06:05:10;;;;;;;25.77;14.30;;;;;;;;;;1718078;83;21288;-84
2021/01/26 06:07:36;;;;;;;27.25;15.68;;;;;;;;;;1716095;83;21211;-84
2021/01/26 06:10:04;;;;;;;28.62;15.28;;;;;;;;;;1712424;84;21571;-84
2021/01/26 06:12:30;;;;;;;28.47;15.30;;;;;;;;;;1719229;83;21139;-84
2021/01/26 06:14:58;;;;;;;30.68;15.15;;;;;;;;;;1785424;80;21604;-85
2021/01/26 06:17:28;;;;;;;28.15;16.25;;;;;;;;;;1785525;80;21600;-84
2021/01/26 06:20:11;;;;;;;28.80;16.20;;;;;;;;;;1785306;80;21153;-84
2021/01/26 06:22:37;;;;;;;29.65;14.13;;;;;;;;;;1784757;80;21613;-84
2021/01/26 06:25:05;;;;;;;24.57;14.45;;;;;;;;;;1785473;80;21153;-84
2021/01/26 06:27:39;;;;;;;27.95;14.75;;;;;;;;;;1785186;80;21126;-84
2021/01/26 06:30:07;;;;;;;25.50;14.17;;;;;;;;;;1785744;80;21601;-84
2021/01/26 06:32:41;;;;;;;27.15;13.95;;;;;;;;;;1782046;80;21165;-85
2021/01/26 06:35:18;;;;;;;25.13;13.50;;;;;;;;;;1784933;80;21227;-85
2021/01/26 06:37:53;;;;;;;20.97;11.48;;;;;;;;;;1785369;80;21589;-86
2021/01/26 06:40:30;;;;;;;24.13;13.47;;;;;;;;;;1785376;80;21193;-84
2021/01/26 06:43:04;;;;;;;23.90;12.95;;;;;;;;;;1785105;80;21134;-85
2021/01/26 06:45:32;;;;;;;22.65;11.90;;;;;;;;;;1785151;80;21621;-84
2021/01/26 06:48:00;;;;;;;22.27;11.73;;;;;;;;;;1785483;80;21156;-85
2021/01/26 06:50:33;;;;;;;19.37;11.78;;;;;;;;;;1785442;80;21146;-86
2021/01/26 06:53:19;;;;;;;20.72;11.35;;;;;;;;;;1785097;80;21184;-85
2021/01/26 06:55:53;;;;;;;18.70;10.68;;;;;;;;;;1785247;80;21177;-84
2021/01/26 06:58:38;;;;;;;14.98;9.73;;;;;;;;;;1784093;80;21166;-84
2021/01/26 07:01:12;;;;;;;15.83;8.95;;;;;;;;;;1785537;80;21095;-85
2021/01/26 07:03:46;;;;;;;18.65;8.55;;;;;;;;;;1785118;80;21585;-85
2021/01/26 07:06:14;;;;;;;16.93;8.93;;;;;;;;;;1785266;80;21126;-86
2021/01/26 07:08:42;;;;;;;15.45;8.35;;;;;;;;;;1784922;80;21193;-84
2021/01/26 07:11:26;;;;;;;15.20;7.80;;;;;;;;;;1785368;80;21565;-84
2021/01/26 07:13:53;;;;;;;14.73;8.53;;;;;;;;;;1785781;80;21153;-83
2021/01/26 07:16:25;;;;;;;13.95;8.10;;;;;;;;;;1785498;80;21161;-85
2021/01/26 07:19:02;;;;;;;12.80;7.45;;;;;;;;;;1785511;80;21162;-85
2021/01/26 07:21:32;;;;;;;15.32;7.55;;;;;;;;;;1784931;80;21154;-84
2021/01/26 07:24:01;;;;;;;12.70;7.33;;;;;;;;;;1784910;80;21161;-86
2021/01/26 07:26:34;;;;;;;12.88;7.47;;;;;;;;;;1784873;80;21153;-84
2021/01/26 07:29:19;;;;;;;13.08;7.42;;;;;;;;;;1785085;80;21165;-82
2021/01/26 07:31:50;;;;;;;18.62;9.08;;;;;;;;;;1785034;80;21169;-83
2021/01/26 07:34:24;;;;;;;18.15;9.35;;;;;;;;;;1784183;80;21183;-84
2021/01/26 07:36:52;;;;;;;19.92;10.23;;;;;;;;;;1779352;80;21131;-82
2021/01/26 07:39:23;;;;;;;16.12;9.35;;;;;;;;;;1767541;81;21164;-82
2021/01/26 07:41:55;;;;;;;18.55;8.53;;;;;;;;;;1767602;81;21730;-82
2021/01/26 07:44:23;;;;;;;16.70;9.80;;;;;;;;;;1767589;80;21200;-82
2021/01/26 07:47:04;;;;;;;16.45;10.13;;;;;;;;;;1767864;80;21718;-85
2021/01/26 07:49:32;;;;;;;14.75;8.00;;;;;;;;;;1767204;80;21290;-86
2021/01/26 07:52:00;;;;;;;17.73;9.40;;;;;;;;;;1772486;80;21141;-86
2021/01/26 07:54:36;;;;;;;16.00;8.58;;;;;;;;;;1760085;80;21149;-83
2021/01/26 07:57:03;;;;;;;15.75;9.00;;;;;;;;;;1756066;82;21307;-85
2021/01/26 07:59:31;;;;;;;18.37;9.70;;;;;;;;;;1755660;82;21222;-85
2021/01/26 08:01:59;;;;;;;15.65;8.38;;;;;;;;;;1756077;82;21292;-85
2021/01/26 08:04:29;;;;;;;19.42;9.48;;;;;;;;;;1755850;81;21347;-85
2021/01/26 08:06:58;;;;;;;20.15;10.85;;;;;;;;;;1755810;82;21213;-85
2021/01/26 08:09:38;;;;;;;19.40;10.30;;;;;;;;;;1756001;81;21164;-84
2021/01/26 08:12:06;;;;;;;18.40;9.65;;;;;;;;;;1759031;81;21164;-86
2021/01/26 08:14:33;;;;;;;19.25;10.05;;;;;;;;;;1758886;81;21189;-83
2021/01/26 08:17:00;;;;;;;17.23;9.23;;;;;;;;;;1758956;81;21184;-84
2021/01/26 08:19:27;;;;;;;18.77;9.55;;;;;;;;;;1759299;81;21193;-85
2021/01/26 08:21:55;;;;;;;17.37;8.75;;;;;;;;;;1768142;81;21147;-84
2021/01/26 08:24:25;;;;;;;19.90;9.50;;;;;;;;;;1776617;81;21210;-85
2021/01/26 08:26:52;;;;;;;19.95;8.98;;;;;;;;;;1776562;81;21582;-86
2021/01/26 08:29:37;;;;;;;17.52;8.80;;;;;;;;;;1774201;79;21195;-84
2021/01/26 08:32:22;;;;;;;15.35;5.80;;;;;;;;;;1775705;79;21166;-84
2021/01/26 08:35:02;;;;;;;15.63;7.17;;;;;;;;;;1776962;81;21143;-86
2021/01/26 08:37:45;;;;;;;13.62;7.58;;;;;;;;;;1776523;81;21605;-85
2021/01/26 08:40:19;;;;;;;16.70;8.08;;;;;;;;;;1776396;79;21150;-86
2021/01/26 08:42:50;;;;;;;15.15;7.47;;;;;;;;;;1776564;81;21599;-85
2021/01/26 08:45:17;;;;;;;17.60;8.48;;;;;;;;;;1776353;79;21194;-85
2021/01/26 08:47:45;;;;;;;15.53;8.78;;;;;;;;;;1776459;81;21182;-85
2021/01/26 08:50:13;;;;;;;19.35;10.20;;;;;;;;;;1776600;80;21201;-85
2021/01/26 08:52:39;;;;;;;15.88;8.55;;;;;;;;;;1773131;81;21119;-84
2021/01/26 08:55:06;;;;;;;16.17;9.60;;;;;;;;;;1776374;81;21165;-84
2021/01/26 08:57:34;;;;;;;14.87;7.62;;;;;;;;;;1776441;81;21147;-85
2021/01/26 09:00:15;;;;;;;16.20;8.35;;;;;;;;;;1776271;81;21110;-85
2021/01/26 09:02:42;;;;;;;14.43;7.20;;;;;;;;;;1776446;79;21157;-84
2021/01/26 09:05:08;;;;;;;20.25;9.05;;;;;;;;;;1776367;81;21167;-84
2021/01/26 09:07:53;;;;;;;14.23;8.25;;;;;;;;;;1776465;81;21594;-85
2021/01/26 09:10:21;;;;;;;16.73;9.58;;;;;;;;;;1772328;78;21136;-85
2021/01/26 09:12:48;;;;;;;18.05;9.60;;;;;;;;;;1767358;81;21175;-85
2021/01/26 09:15:14;;;;;;;16.85;9.68;;;;;;;;;;1767726;81;21172;-85
2021/01/26 09:17:40;;;;;;;20.68;10.85;;;;;;;;;;1767729;81;21301;-85
2021/01/26 09:20:08;;;;;;;19.40;10.23;;;;;;;;;;1767541;81;21199;-85
2021/01/26 09:22:34;;;;;;;18.23;9.45;;;;;;;;;;1767855;80;21155;-86
2021/01/26 09:25:05;;;;;;;19.55;9.68;;;;;;;;;;1767697;81;21164;-84
2021/01/26 09:27:33;;;;;;;15.53;8.53;;;;;;;;;;1767668;81;21141;-83
2021/01/26 09:30:10;;;;;;;15.25;8.75;;;;;;;;;;1767570;80;21113;-85
2021/01/26 09:32:37;;;;;;;15.72;8.05;;;;;;;;;;1767474;81;21175;-84
2021/01/26 09:35:14;;;;;;;14.78;8.25;;;;;;;;;;1767521;80;21599;-84
2021/01/26 09:37:40;;;;;;;12.47;6.90;;;;;;;;;;1767146;80;21195;-85
2021/01/26 09:40:08;;;;;;;15.35;7.70;;;;;;;;;;1767531;81;21595;-85
2021/01/26 09:42:34;;;;;;;13.48;7.97;;;;;;;;;;1766517;81;21302;-85
2021/01/26 09:45:02;;;;;;;14.85;7.35;;;;;;;;;;1767405;81;21301;-87
2021/01/26 09:47:28;;;;;;;15.68;7.53;;;;;;;;;;1767607;80;21252;-86
2021/01/26 09:50:03;;;;;;;13.98;7.55;;;;;;;;;;1767433;81;21152;-86
2021/01/26 09:52:29;;;;;;;11.20;7.25;;;;;;;;;;1767980;81;21183;-86
2021/01/26 09:55:03;;;;;;;12.68;6.95;;;;;;;;;;1745957;81;21148;-86
2021/01/26 09:57:29;;;;;;;14.00;7.47;;;;;;;;;;1766820;81;21212;-85
2021/01/26 09:59:55;;;;;;;11.80;6.80;;;;;;;;;;1746293;81;21167;-84
2021/01/26 10:02:21;;;;;;;9.05;6.12;;;;;;;;;;1767482;80;21733;-85
2021/01/26 10:04:48;;;;;;;13.05;6.70;;;;;;;;;;1767756;81;21239;-85
2021/01/26 10:07:15;;;;;;;11.05;6.33;;;;;;;;;;1767632;80;21156;-85
2021/01/26 10:09:41;;;;;;;10.32;6.22;;;;;;;;;;1767614;79;21124;-78
2021/01/26 10:12:12;;;;;;;10.53;6.60;;;;;;;;;;1767624;81;21568;-73
2021/01/26 10:14:38;;;;;;;12.05;6.92;;;;;;;;;;1761535;81;21148;-74
2021/01/26 10:17:06;;;;;;;10.60;6.03;;;;;;;;;;1767919;81;21168;-73
2021/01/26 10:19:32;;;;;;;12.65;6.60;;;;;;;;;;1767132;80;21147;-74
2021/01/26 10:22:16;;;;;;;8.20;5.95;;;;;;;;;;1767639;81;21147;-74
2021/01/26 10:24:42;;;;;;;11.48;6.97;;;;;;;;;;1767541;81;21137;-75
2021/01/26 10:27:10;;;;;;;11.73;7.50;;;;;;;;;;1767517;80;21176;-73
2021/01/26 10:29:37;;;;;;;11.75;7.42;;;;;;;;;;1767665;81;21163;-73
2021/01/26 10:32:03;;;;;;;10.32;6.50;;;;;;;;;;1772045;81;21575;-74
2021/01/26 10:34:34;;;;;;;9.15;6.22;;;;;;;;;;1742122;82;21560;-75
2021/01/26 10:37:15;;;;;;;8.05;5.62;;;;;;;;;;1766945;81;21136;-75
2021/01/26 10:40:43;;;;;;;10.05;6.05;;;;;;;;;;1848508;76;23008;-77
2021/01/26 10:43:10;;;;;;;9.05;5.70;;;;;;;;;;1860100;77;21300;-77
2021/01/26 10:45:38;;;;;;;10.03;5.92;;;;;;;;;;1859986;77;21100;-82
2021/01/26 10:48:09;;;;;;;11.50;6.25;;;;;;;;;;1860289;77;21135;-79
2021/01/26 10:50:35;;;;;;;8.40;5.00;;;;;;;;;;1858937;77;21261;-78
2021/01/26 10:53:02;;;;;;;5.55;4.12;;;;;;;;;;1859971;77;21127;-78
2021/01/26 10:55:28;;;;;;;8.80;4.85;;;;;;;;;;1860415;77;21143;-80
2021/01/26 10:57:54;;;;;;;8.35;5.05;;;;;;;;;;1860032;77;21123;-79
2021/01/26 11:00:28;;;;;;;10.80;6.15;;;;;;;;;;1860122;77;21147;-80
2021/01/26 11:02:55;;;;;;;11.07;6.07;;;;;;;;;;1860594;77;21117;-79
2021/01/26 11:05:21;;;;;;;9.88;6.00;;;;;;;;;;1859989;77;21694;-80
2021/01/26 11:07:48;;;;;;;10.13;5.45;;;;;;;;;;1860136;77;21155;-79
2021/01/26 11:10:15;;;;;;;8.18;5.35;;;;;;;;;;1859215;77;21634;-79
2021/01/26 11:12:41;;;;;;;10.32;5.95;;;;;;;;;;1860248;77;21135;-78
2021/01/26 11:15:11;;;;;;;7.05;4.70;;;;;;;;;;1860091;77;21571;-78
2021/01/26 11:17:37;;;;;;;9.53;5.03;;;;;;;;;;1859968;77;21594;-79
2021/01/26 11:20:04;;;;;;;9.85;5.20;;;;;;;;;;1860097;77;21135;-79
2021/01/26 11:22:31;;;;;;;7.67;4.75;;;;;;;;;;1860187;77;21335;-79
2021/01/26 11:24:57;;;;;;;7.95;4.85;;;;;;;;;;1860024;77;21138;-80
2021/01/26 11:27:23;;;;;;;8.23;4.75;;;;;;;;;;1860009;77;21575;-79
2021/01/26 11:29:49;;;;;;;6.53;4.45;;;;;;;;;;1860026;77;21331;-79
2021/01/26 11:32:17;;;;;;;9.03;5.25;;;;;;;;;;1859972;77;21302;-79
2021/01/26 11:34:45;;;;;;;8.73;5.42;;;;;;;;;;1860162;77;21151;-78
2021/01/26 11:37:12;;;;;;;9.68;5.83;;;;;;;;;;1860378;77;21151;-79
2021/01/26 11:39:39;;;;;;;14.00;6.67;;;;;;;;;;1854521;77;21124;-78
2021/01/26 11:42:07;;;;;;;7.70;5.05;;;;;;;;;;1848381;77;21651;-79
2021/01/26 11:44:34;;;;;;;10.80;6.55;;;;;;;;;;1825403;77;21140;-78
2021/01/26 11:47:00;;;;;;;9.78;6.30;;;;;;;;;;1848314;77;21264;-78
2021/01/26 11:49:27;;;;;;;11.70;6.08;;;;;;;;;;1848429;77;21704;-78
2021/01/26 11:51:53;;;;;;;13.83;6.17;;;;;;;;;;1846826;77;21171;-77
2021/01/26 11:54:19;;;;;;;10.38;6.35;;;;;;;;;;1845711;78;21160;-78
2021/01/26 11:56:46;;;;;;;11.70;6.42;;;;;;;;;;1845609;78;21286;-77
2021/01/26 11:59:12;;;;;;;9.53;6.55;;;;;;;;;;1845837;78;21539;-78
2021/01/26 12:01:39;;;;;;;12.55;6.58;;;;;;;;;;1845764;78;21156;-78
2021/01/26 12:04:05;;;;;;;10.23;5.35;;;;;;;;;;1845672;78;21556;-77
2021/01/26 12:06:31;;;;;;;14.35;6.03;;;;;;;;;;1803182;79;21144;-79
2021/01/26 12:08:57;;;;;;;10.58;6.30;;;;;;;;;;1758177;81;21558;-78
2021/01/26 12:11:23;;;;;;;13.78;7.17;;;;;;;;;;1769843;81;21198;-79
2021/01/26 12:13:50;;;;;;;10.55;6.47;;;;;;;;;;1758161;81;21172;-80
2021/01/26 12:16:16;;;;;;;11.15;6.15;;;;;;;;;;1769851;81;21154;-79
2021/01/26 12:18:42;;;;;;;10.28;5.90;;;;;;;;;;1758005;81;21152;-78
2021/01/26 12:21:08;;;;;;;8.38;5.33;;;;;;;;;;1762255;81;21703;-79
2021/01/26 12:23:35;;;;;;;13.15;5.85;;;;;;;;;;1810245;79;21133;-78
2021/01/26 12:26:01;;;;;;;10.15;5.67;;;;;;;;;;1823430;79;21131;-78
2021/01/26 12:28:27;;;;;;;9.58;5.58;;;;;;;;;;1823441;79;21140;-78
2021/01/26 12:30:53;;;;;;;11.15;5.87;;;;;;;;;;1823406;79;21224;-79
2021/01/26 12:33:20;;;;;;;16.48;6.70;;;;;;;;;;1823400;78;21144;-79
2021/01/26 12:35:47;;;;;;;9.53;5.80;;;;;;;;;;1823330;79;21156;-78
2021/01/26 12:38:13;;;;;;;12.18;5.35;;;;;;;;;;1823371;79;21155;-79
2021/01/26 12:40:39;;;;;;;10.23;5.85;;;;;;;;;;1816396;78;21627;-79
2021/01/26 12:43:06;;;;;;;7.53;5.08;;;;;;;;;;1814537;79;21152;-78
2021/01/26 12:45:32;;;;;;;10.70;5.47;;;;;;;;;;1814198;79;21567;-79
2021/01/26 12:47:59;;;;;;;10.38;6.30;;;;;;;;;;1815434;79;21579;-78
2021/01/26 12:50:27;;;;;;;11.73;6.00;;;;;;;;;;1795624;79;21623;-79
2021/01/26 12:52:53;;;;;;;12.35;6.03;;;;;;;;;;1791960;80;21136;-78
2021/01/26 12:55:19;;;;;;;12.23;6.40;;;;;;;;;;1791995;80;21722;-79
2021/01/26 12:57:46;;;;;;;8.45;5.12;;;;;;;;;;1791906;80;21173;-78
2021/01/26 13:00:13;;;;;;;11.25;5.28;;;;;;;;;;1792126;79;21139;-78
2021/01/26 13:02:39;;;;;;;11.73;5.92;;;;;;;;;;1792219;79;21143;-79
2021/01/26 13:05:06;;;;;;;8.80;5.60;;;;;;;;;;1791165;79;22295;-78
2021/01/26 13:07:33;;;;;;;8.98;4.35;;;;;;;;;;1790624;80;21527;-78
2021/01/26 13:09:59;;;;;;;7.15;4.53;;;;;;;;;;1791527;80;21219;-78
2021/01/26 13:12:25;;;;;;;7.80;4.70;;;;;;;;;;1792206;80;21250;-78
2021/01/26 13:14:51;;;;;;;9.48;4.45;;;;;;;;;;1800258;79;21574;-78
2021/01/26 13:17:17;;;;;;;10.13;4.42;;;;;;;;;;1815319;79;21104;-77
2021/01/26 13:19:44;;;;;;;10.72;5.03;;;;;;;;;;1818906;79;21172;-78
2021/01/26 13:22:10;;;;;;;5.53;4.05;;;;;;;;;;1818546;79;21551;-78
2021/01/26 13:24:38;;;;;;;6.60;3.37;;;;;;;;;;1786475;79;21143;-79
2021/01/26 13:27:06;;;;;;;5.67;2.98;;;;;;;;;;1796591;79;21128;-79
2021/01/26 13:29:33;;;;;;;6.50;3.87;;;;;;;;;;1820605;79;21155;-77
2021/01/26 13:31:59;;;;;;;7.45;4.53;;;;;;;;;;1820593;79;21184;-79
2021/01/26 13:34:25;;;;;;;7.92;3.77;;;;;;;;;;1820496;79;21135;-79
2021/01/26 13:36:52;;;;;;;7.58;3.90;;;;;;;;;;1820408;79;21163;-78
2021/01/26 13:39:18;;;;;;;6.85;4.00;;;;;;;;;;1802704;79;21162;-78
2021/01/26 13:41:48;;;;;;;6.87;4.00;;;;;;;;;;1810068;79;21145;-77
2021/01/26 13:44:12;;;;;;;5.47;3.67;;;;;;;;;;1809624;79;21121;-78
2021/01/26 13:46:40;;;;;;;6.17;3.92;;;;;;;;;;1785659;80;21147;-76
2021/01/26 13:49:06;;;;;;;8.05;4.20;;;;;;;;;;1791125;80;21167;-74
2021/01/26 13:51:35;;;;;;;6.05;3.65;;;;;;;;;;1790764;80;21150;-73
2021/01/26 13:54:01;;;;;;;7.83;4.00;;;;;;;;;;1790316;80;21127;-74
2021/01/26 13:56:27;;;;;;;6.50;3.62;;;;;;;;;;1790320;80;21535;-74
2021/01/26 13:58:54;;;;;;;8.88;4.10;;;;;;;;;;1790357;80;21119;-75
2021/01/26 14:01:20;;;;;;;6.75;3.85;;;;;;;;;;1790269;80;21112;-75
2021/01/26 14:03:47;;;;;;;5.58;3.37;;;;;;;;;;1790657;80;21139;-75
2021/01/26 14:06:14;;;;;;;8.05;3.87;;;;;;;;;;1790347;80;21720;-74
2021/01/26 14:08:40;;;;;;;7.17;3.67;;;;;;;;;;1790283;80;21150;-74
2021/01/26 14:11:07;;;;;;;7.20;4.37;;;;;;;;;;1789224;80;21267;-75
2021/01/26 14:13:33;;;;;;;9.13;4.25;;;;;;;;;;1779468;80;21130;-75
2021/01/26 14:16:01;;;;;;;7.70;4.25;;;;;;;;;;1757868;82;21154;-74
2021/01/26 14:18:27;;;;;;;6.10;3.33;;;;;;;;;;1757606;82;21605;-74
2021/01/26 14:20:53;;;;;;;8.23;3.65;;;;;;;;;;1740453;82;21660;-74
2021/01/26 14:23:21;;;;;;;6.35;3.30;;;;;;;;;;1725979;83;21156;-74
2021/01/26 14:25:52;;;;;;;8.75;4.65;;;;;;;;;;1765750;81;21710;-74
2021/01/26 14:28:15;;;;;;;8.35;4.75;;;;;;;;;;1765487;81;21122;-73
2021/01/26 14:30:41;;;;;;;7.78;4.62;;;;;;;;;;1765924;81;21582;-75
2021/01/26 14:33:10;;;;;;;8.55;4.80;;;;;;;;;;1766193;80;21228;-77
2021/01/26 14:35:36;;;;;;;8.75;3.98;;;;;;;;;;1766104;80;21130;-76
2021/01/26 14:38:02;;;;;;;9.37;4.57;;;;;;;;;;1765875;81;21142;-78